Time;durP1;ratioP1;P1;durP2;ratioP2;P2;SDS_P1;SDS_P2;PMS_P1;PMS_P2;Temp;Humidity;BMP_temperature;BMP_pressure;BME280_temperature;BME280_humidity;BME280_pressure;Samples;Min_cycle;Max_cycle;Signal;HPM_P1;HPM_P2
2022/08/17 00:01:06;;;;;;;5.93;4.43;;;22.10;99.90;;;;;;4180608;28;20714;-76
2022/08/17 00:03:13;;;;;;;6.23;4.50;;;22.10;99.90;;;;;;4184495;28;20298;-76
2022/08/17 00:05:15;;;;;;;7.20;4.60;;;22.00;99.90;;;;;;4177189;28;20257;-76
2022/08/17 00:07:17;;;;;;;8.40;4.63;;;22.00;99.90;;;;;;4185701;28;20202;-76
2022/08/17 00:09:20;;;;;;;6.17;4.77;;;22.00;99.90;;;;;;4184819;28;20210;-76
2022/08/17 00:11:27;;;;;;;6.90;4.40;;;21.90;99.90;;;;;;4186297;28;20245;-76
2022/08/17 00:13:32;;;;;;;6.03;4.67;;;21.90;99.90;;;;;;4200537;28;20663;-76
2022/08/17 00:15:34;;;;;;;5.47;4.40;;;21.90;99.90;;;;;;4187640;28;20310;-76
2022/08/17 00:17:36;;;;;;;5.90;4.37;;;21.80;99.90;;;;;;4182186;28;20222;-76
2022/08/17 00:19:38;;;;;;;6.43;4.27;;;21.90;99.90;;;;;;4186375;28;20313;-76
2022/08/17 00:21:43;;;;;;;6.33;4.40;;;21.80;99.90;;;;;;4185723;28;20207;-76
2022/08/17 00:23:45;;;;;;;5.20;3.93;;;21.80;99.90;;;;;;4190001;28;20217;-76
2022/08/17 00:25:49;;;;;;;7.53;4.57;;;21.80;99.90;;;;;;4184465;28;20629;-76
2022/08/17 00:27:51;;;;;;;5.50;4.00;;;21.80;99.90;;;;;;4182662;28;20209;-75
2022/08/17 00:29:53;;;;;;;5.73;4.10;;;21.70;99.90;;;;;;4184893;28;20257;-75
2022/08/17 00:31:55;;;;;;;5.57;4.07;;;21.70;99.90;;;;;;4183543;28;20207;-75
2022/08/17 00:33:56;;;;;;;5.67;4.37;;;21.70;99.90;;;;;;4180227;28;20233;-76
2022/08/17 00:35:59;;;;;;;6.57;4.53;;;21.70;99.90;;;;;;4185804;28;20221;-75
2022/08/17 00:38:02;;;;;;;5.13;4.07;;;21.60;99.90;;;;;;4183977;28;20721;-76
2022/08/17 00:40:06;;;;;;;6.67;4.10;;;21.60;99.90;;;;;;4184701;28;20248;-76
2022/08/17 00:42:14;;;;;;;5.57;4.10;;;21.60;99.90;;;;;;4185799;28;20210;-76
2022/08/17 00:44:16;;;;;;;7.93;4.63;;;21.60;99.90;;;;;;4183511;28;20206;-76
2022/08/17 00:46:20;;;;;;;6.77;4.10;;;21.50;99.90;;;;;;4184859;28;20715;-76
2022/08/17 00:48:23;;;;;;;5.67;4.30;;;21.50;99.90;;;;;;4185574;28;20644;-76
2022/08/17 00:50:25;;;;;;;5.93;4.20;;;21.50;99.90;;;;;;4182425;28;20291;-76
2022/08/17 00:52:32;;;;;;;5.73;4.37;;;21.40;99.90;;;;;;4183790;28;20663;-76
2022/08/17 00:54:37;;;;;;;4.67;4.17;;;21.40;99.90;;;;;;4188768;28;20588;-76
2022/08/17 00:56:42;;;;;;;5.87;4.10;;;21.40;99.90;;;;;;4201210;28;20299;-76
2022/08/17 00:58:46;;;;;;;5.40;3.93;;;21.40;99.90;;;;;;4185592;28;20277;-75
2022/08/17 01:00:48;;;;;;;5.27;3.90;;;21.40;99.90;;;;;;4193738;28;20225;-76
2022/08/17 01:02:50;;;;;;;6.00;4.33;;;21.30;99.90;;;;;;4190850;28;20248;-76
2022/08/17 01:04:53;;;;;;;5.50;3.93;;;21.30;99.90;;;;;;4185065;28;20578;-75
2022/08/17 01:06:56;;;;;;;5.80;4.30;;;21.20;99.90;;;;;;4190879;28;20678;-75
2022/08/17 01:09:00;;;;;;;4.93;4.00;;;21.30;99.90;;;;;;4187987;28;20205;-75
2022/08/17 01:11:04;;;;;;;6.27;4.40;;;21.20;99.90;;;;;;4188501;28;20319;-75
2022/08/17 01:13:07;;;;;;;5.73;3.90;;;21.30;99.90;;;;;;4186934;28;20206;-76
2022/08/17 01:15:11;;;;;;;5.10;3.93;;;21.20;99.90;;;;;;4185655;28;20297;-76
2022/08/17 01:17:13;;;;;;;5.33;3.63;;;21.20;99.90;;;;;;4186774;28;20204;-76
2022/08/17 01:19:19;;;;;;;7.73;4.37;;;21.20;99.90;;;;;;4184214;28;20261;-76
2022/08/17 01:21:26;;;;;;;4.63;3.83;;;21.20;99.90;;;;;;4192469;28;20348;-76
2022/08/17 01:23:30;;;;;;;7.27;4.20;;;21.10;99.90;;;;;;4189056;28;20215;-76
2022/08/17 01:25:32;;;;;;;5.40;4.30;;;21.10;99.90;;;;;;4186726;28;20218;-76
2022/08/17 01:27:35;;;;;;;5.67;4.33;;;21.10;99.90;;;;;;4183621;28;20320;-76
2022/08/17 01:29:40;;;;;;;5.50;4.27;;;21.10;99.90;;;;;;4184448;28;20332;-76
2022/08/17 01:31:47;;;;;;;5.70;4.13;;;21.00;99.90;;;;;;4186169;28;20235;-76
2022/08/17 01:33:49;;;;;;;5.73;4.17;;;21.10;99.90;;;;;;4185788;28;20234;-76
2022/08/17 01:35:51;;;;;;;4.87;4.03;;;21.00;99.90;;;;;;4185199;28;20233;-76
2022/08/17 01:37:53;;;;;;;5.00;4.03;;;21.00;99.90;;;;;;4186302;28;20223;-76
2022/08/17 01:40:00;;;;;;;5.73;4.20;;;20.90;99.90;;;;;;4184307;28;20247;-76
2022/08/17 01:42:07;;;;;;;5.90;4.27;;;20.90;99.90;;;;;;4182260;28;20320;-76
2022/08/17 01:44:11;;;;;;;5.17;3.83;;;20.90;99.90;;;;;;4185004;28;20213;-76
2022/08/17 01:46:15;;;;;;;6.00;4.07;;;20.90;99.90;;;;;;4183437;28;20779;-76
2022/08/17 01:48:18;;;;;;;8.27;4.30;;;20.80;99.90;;;;;;4181218;28;20201;-76
2022/08/17 01:50:26;;;;;;;7.13;4.27;;;20.90;99.90;;;;;;4187359;28;20229;-76
2022/08/17 01:52:28;;;;;;;5.87;3.90;;;20.80;99.90;;;;;;4184344;28;20251;-76
2022/08/17 01:54:30;;;;;;;6.70;4.07;;;20.80;99.90;;;;;;4184186;28;20642;-76
2022/08/17 01:56:36;;;;;;;6.07;3.83;;;20.80;99.90;;;;;;4189422;28;20252;-75
2022/08/17 01:58:39;;;;;;;6.50;4.30;;;20.80;99.90;;;;;;4192417;28;20780;-76
2022/08/17 02:00:44;;;;;;;5.77;3.97;;;20.80;99.90;;;;;;4187417;28;20257;-76
2022/08/17 02:02:46;;;;;;;6.10;4.10;;;20.80;99.90;;;;;;4186105;28;20703;-75
2022/08/17 02:04:47;;;;;;;5.33;4.00;;;20.80;99.90;;;;;;4187169;28;20236;-75
2022/08/17 02:06:49;;;;;;;5.03;3.90;;;20.80;99.90;;;;;;4185410;28;20200;-75
2022/08/17 02:08:50;;;;;;;5.43;3.77;;;20.70;99.90;;;;;;4188018;28;20255;-76
2022/08/17 02:10:53;;;;;;;4.70;3.73;;;20.70;99.90;;;;;;4185978;28;20243;-75
2022/08/17 02:12:56;;;;;;;5.40;4.50;;;20.70;99.90;;;;;;4189450;28;20236;-76
2022/08/17 02:14:58;;;;;;;6.00;4.10;;;20.70;99.90;;;;;;4184721;28;20556;-75
2022/08/17 02:17:00;;;;;;;5.80;4.17;;;20.70;99.90;;;;;;4188944;28;20242;-75
2022/08/17 02:19:02;;;;;;;5.70;4.10;;;20.70;99.90;;;;;;4187382;28;20259;-75
2022/08/17 02:21:04;;;;;;;4.97;4.03;;;20.70;99.90;;;;;;4187277;28;20319;-76
2022/08/17 02:23:08;;;;;;;5.13;3.70;;;20.60;99.90;;;;;;4188642;28;20299;-75
2022/08/17 02:25:12;;;;;;;4.87;3.90;;;20.70;99.90;;;;;;4187960;28;20708;-75
2022/08/17 02:27:14;;;;;;;5.20;4.10;;;20.60;99.90;;;;;;4185392;28;20221;-75
2022/08/17 02:29:18;;;;;;;6.80;3.90;;;20.60;99.90;;;;;;4181364;28;20593;-75
2022/08/17 02:31:20;;;;;;;5.20;4.30;;;20.60;99.90;;;;;;4186561;28;20201;-75
2022/08/17 02:33:22;;;;;;;4.77;3.87;;;20.60;99.90;;;;;;4189058;28;20295;-76
2022/08/17 02:35:24;;;;;;;4.27;3.87;;;20.60;99.90;;;;;;4187325;28;20199;-76
2022/08/17 02:37:26;;;;;;;5.63;3.93;;;20.60;99.90;;;;;;4185771;28;20240;-75
2022/08/17 02:39:28;;;;;;;5.67;4.03;;;20.60;99.90;;;;;;4185125;28;20648;-75
2022/08/17 02:41:30;;;;;;;5.17;3.90;;;20.60;99.90;;;;;;4181117;28;20210;-75
2022/08/17 02:43:32;;;;;;;5.20;3.80;;;20.60;99.90;;;;;;4184019;28;20226;-75
2022/08/17 02:45:36;;;;;;;4.43;4.00;;;20.60;99.90;;;;;;4186733;28;20292;-76
2022/08/17 02:47:39;;;;;;;4.70;3.90;;;20.60;99.90;;;;;;4184439;28;20293;-76
2022/08/17 02:49:41;;;;;;;5.47;4.00;;;20.60;99.90;;;;;;4183389;28;20953;-75
2022/08/17 02:51:43;;;;;;;5.73;3.93;;;20.60;99.90;;;;;;4189223;28;20235;-75
2022/08/17 02:53:46;;;;;;;4.73;4.13;;;20.60;99.90;;;;;;4187092;28;20300;-75
2022/08/17 02:55:47;;;;;;;5.23;3.83;;;20.60;99.90;;;;;;4188271;28;20201;-75
2022/08/17 02:57:50;;;;;;;5.17;3.90;;;20.60;99.90;;;;;;4188072;28;20213;-75
2022/08/17 02:59:52;;;;;;;4.73;3.83;;;20.50;99.90;;;;;;4187609;28;20225;-75
2022/08/17 03:01:55;;;;;;;5.43;3.87;;;20.50;99.90;;;;;;4185752;28;20320;-75
2022/08/17 03:03:57;;;;;;;5.30;4.00;;;20.50;99.90;;;;;;4186442;28;20212;-75
2022/08/17 03:05:59;;;;;;;5.53;3.90;;;20.50;99.90;;;;;;4186912;28;20209;-75
2022/08/17 03:08:03;;;;;;;4.10;3.63;;;20.50;99.90;;;;;;4182242;28;20263;-76
2022/08/17 03:10:06;;;;;;;5.37;3.83;;;20.50;99.90;;;;;;4187179;28;20716;-75
2022/08/17 03:12:11;;;;;;;4.77;3.83;;;20.50;99.90;;;;;;4184064;28;20230;-75
2022/08/17 03:14:13;;;;;;;6.13;4.13;;;20.50;99.90;;;;;;4186989;28;20239;-75
2022/08/17 03:16:14;;;;;;;5.17;4.07;;;20.50;99.90;;;;;;4186237;28;20479;-75
2022/08/17 03:18:19;;;;;;;5.23;3.93;;;20.40;99.90;;;;;;4186014;28;20614;-75
2022/08/17 03:20:22;;;;;;;5.10;3.77;;;20.50;99.90;;;;;;4186144;28;20690;-77
2022/08/17 03:22:24;;;;;;;6.60;3.80;;;20.40;99.90;;;;;;4185548;28;20241;-76
2022/08/17 03:24:26;;;;;;;5.53;4.30;;;20.40;99.90;;;;;;4185172;28;20296;-76
2022/08/17 03:26:28;;;;;;;5.10;3.90;;;20.40;99.90;;;;;;4187714;28;20313;-76
2022/08/17 03:28:30;;;;;;;5.57;4.20;;;20.40;99.90;;;;;;4184274;28;20217;-76
2022/08/17 03:30:32;;;;;;;5.40;4.10;;;20.40;99.90;;;;;;4184397;28;20228;-76
2022/08/17 03:32:38;;;;;;;5.80;4.10;;;20.40;99.90;;;;;;4182627;28;20228;-76
2022/08/17 03:34:41;;;;;;;4.70;4.00;;;20.30;99.90;;;;;;4183478;28;20208;-76
2022/08/17 03:36:44;;;;;;;6.43;4.27;;;20.40;99.90;;;;;;4185062;28;20232;-76
2022/08/17 03:38:45;;;;;;;5.17;4.00;;;20.30;99.90;;;;;;4184148;28;20237;-76
2022/08/17 03:40:49;;;;;;;5.23;4.10;;;20.30;99.90;;;;;;4189287;28;20267;-76
2022/08/17 03:42:52;;;;;;;4.97;4.20;;;20.30;99.90;;;;;;4189030;28;20323;-76
2022/08/17 03:44:55;;;;;;;4.60;4.00;;;20.30;99.90;;;;;;4188096;28;20203;-76
2022/08/17 03:58:37;;;;;;;5.17;4.30;;;20.20;99.90;;;;;;4184996;28;20764;-75
2022/08/17 04:00:45;;;;;;;5.40;4.30;;;20.20;99.90;;;;;;4184543;28;20307;-76
2022/08/17 04:02:47;;;;;;;5.63;4.33;;;20.20;99.90;;;;;;4184380;28;20206;-75
2022/08/17 04:04:49;;;;;;;5.97;3.80;;;20.20;99.90;;;;;;4185408;28;20290;-75
2022/08/17 04:06:53;;;;;;;4.97;3.83;;;20.20;99.90;;;;;;4184593;28;20198;-76
2022/08/17 04:08:55;;;;;;;4.77;4.00;;;20.20;99.90;;;;;;4185179;28;20297;-76
2022/08/17 04:10:58;;;;;;;4.70;3.90;;;20.10;99.90;;;;;;4186489;28;20548;-76
2022/08/17 04:13:00;;;;;;;5.50;4.30;;;20.20;99.90;;;;;;4182544;28;20193;-75
2022/08/17 04:15:03;;;;;;;5.37;4.30;;;20.20;99.90;;;;;;4184507;28;20708;-76
2022/08/17 04:17:05;;;;;;;5.27;4.30;;;20.20;99.90;;;;;;4184373;28;20215;-75
2022/08/17 04:19:07;;;;;;;4.63;4.13;;;20.20;99.90;;;;;;4186479;28;20221;-76
2022/08/17 04:21:09;;;;;;;4.53;3.57;;;20.20;99.90;;;;;;4182230;28;20206;-76
2022/08/17 04:23:15;;;;;;;5.63;4.07;;;20.20;99.90;;;;;;4188571;28;20212;-77
2022/08/17 04:25:18;;;;;;;6.03;4.13;;;20.20;99.90;;;;;;4183491;28;20631;-76
2022/08/17 04:27:20;;;;;;;5.63;3.73;;;20.20;99.90;;;;;;4185882;28;20212;-76
2022/08/17 04:29:22;;;;;;;5.97;3.77;;;20.20;99.90;;;;;;4184070;28;20637;-76
2022/08/17 04:31:25;;;;;;;6.37;4.33;;;20.30;99.90;;;;;;4187086;28;20236;-76
2022/08/17 04:33:29;;;;;;;4.27;3.80;;;20.30;99.90;;;;;;4189609;28;20511;-76
2022/08/17 04:35:34;;;;;;;5.63;4.10;;;20.30;99.90;;;;;;4186151;28;20258;-76
2022/08/17 04:37:35;;;;;;;5.97;4.20;;;20.30;99.90;;;;;;4187307;28;20216;-76
2022/08/17 04:42:05;;;;;;;6.57;4.80;;;20.30;99.90;;;;;;4187807;28;20283;-76
2022/08/17 04:42:05;;;;;;;7.13;3.93;;;20.30;99.90;;;;;;4188594;28;20233;-76
2022/08/17 04:44:07;;;;;;;4.73;3.87;;;20.40;99.90;;;;;;4187083;28;20642;-76
2022/08/17 04:46:12;;;;;;;4.37;3.83;;;20.40;99.90;;;;;;4186478;28;20241;-77
2022/08/17 04:48:14;;;;;;;4.10;3.70;;;20.40;99.90;;;;;;4189282;28;20697;-76
2022/08/17 04:50:16;;;;;;;5.20;4.10;;;20.40;99.90;;;;;;4188298;28;20222;-76
2022/08/17 04:52:18;;;;;;;4.47;4.07;;;20.40;99.90;;;;;;4192175;28;20300;-76
2022/08/17 04:54:21;;;;;;;4.77;3.83;;;20.50;99.90;;;;;;4189704;28;20717;-76
2022/08/17 04:56:26;;;;;;;4.93;4.13;;;20.50;99.90;;;;;;4191167;28;20206;-76
2022/08/17 04:58:28;;;;;;;4.93;3.97;;;20.50;99.90;;;;;;4186694;28;20212;-76
2022/08/17 05:00:30;;;;;;;5.70;3.83;;;20.50;99.90;;;;;;4188932;28;20240;-76
2022/08/17 05:02:32;;;;;;;6.23;4.00;;;20.50;99.90;;;;;;4189468;28;20233;-77
2022/08/17 05:04:33;;;;;;;5.00;3.90;;;20.50;99.90;;;;;;4199402;28;20212;-76
2022/08/17 05:06:36;;;;;;;5.53;4.30;;;20.50;99.90;;;;;;4191384;28;20228;-77
2022/08/17 05:08:38;;;;;;;5.63;3.83;;;20.50;99.90;;;;;;4188693;28;20488;-76
2022/08/17 05:10:40;;;;;;;5.77;4.00;;;20.50;99.90;;;;;;4185889;28;20697;-76
2022/08/17 05:12:43;;;;;;;4.53;3.90;;;20.50;99.90;;;;;;4184457;28;20215;-77
2022/08/17 05:14:45;;;;;;;4.70;4.03;;;20.50;99.90;;;;;;4192317;28;20217;-76
2022/08/17 05:16:49;;;;;;;5.03;3.93;;;20.60;99.90;;;;;;4191193;28;20231;-76
2022/08/17 05:18:52;;;;;;;5.90;3.90;;;20.60;99.90;;;;;;4190613;28;20278;-76
2022/08/17 05:20:54;;;;;;;6.17;3.87;;;20.60;99.90;;;;;;4190928;28;20229;-76
2022/08/17 05:22:59;;;;;;;4.87;4.10;;;20.60;99.90;;;;;;4185643;28;20197;-76
2022/08/17 05:25:01;;;;;;;5.90;4.17;;;20.60;99.90;;;;;;4190804;28;20199;-76
2022/08/17 05:27:03;;;;;;;6.80;4.60;;;20.70;99.90;;;;;;4191730;28;20630;-76
2022/08/17 05:29:06;;;;;;;5.73;4.33;;;20.70;99.90;;;;;;4189468;28;20309;-76
2022/08/17 05:31:08;;;;;;;8.63;4.57;;;20.70;99.90;;;;;;4190767;28;20256;-76
2022/08/17 05:33:13;;;;;;;5.87;4.77;;;20.70;99.90;;;;;;4189686;28;20283;-76
2022/08/17 05:35:15;;;;;;;4.63;3.97;;;20.70;99.90;;;;;;4193406;28;20679;-76
2022/08/17 05:37:17;;;;;;;5.80;4.17;;;20.70;99.90;;;;;;4188137;28;20580;-76
2022/08/17 05:39:18;;;;;;;5.93;4.33;;;20.70;99.90;;;;;;4186723;28;20315;-76
2022/08/17 05:41:20;;;;;;;6.80;4.40;;;20.80;99.90;;;;;;4192133;28;20210;-76
2022/08/17 05:43:24;;;;;;;6.47;4.50;;;20.80;99.90;;;;;;4190696;28;20205;-77
2022/08/17 05:47:40;;;;;;;5.37;4.07;;;20.80;99.90;;;;;;4291547;23;20234;-77
2022/08/17 05:49:42;;;;;;;6.13;4.57;;;20.80;99.90;;;;;;4153149;28;20589;-77
2022/08/17 05:51:58;;;;;;;7.80;4.90;;;20.90;99.90;;;;;;4156636;28;20234;-76
2022/08/17 05:54:13;;;;;;;6.20;4.87;;;20.90;99.90;;;;;;4162785;28;20894;-76
2022/08/17 05:56:24;;;;;;;6.33;4.30;;;20.90;99.90;;;;;;4157064;28;20289;-77
2022/08/17 05:58:35;;;;;;;7.57;4.90;;;21.00;99.90;;;;;;4153681;28;20207;-76
2022/08/17 06:00:49;;;;;;;7.80;5.13;;;21.00;99.90;;;;;;4136441;28;20337;-76
2022/08/17 06:03:14;;;;;;;7.27;5.37;;;21.00;99.90;;;;;;4153417;28;20672;-76
2022/08/17 06:05:32;;;;;;;7.13;4.90;;;21.00;99.90;;;;;;4157007;28;20648;-76
2022/08/17 06:07:48;;;;;;;7.13;4.90;;;21.10;99.90;;;;;;4160464;28;20639;-76
2022/08/17 06:10:02;;;;;;;5.07;4.37;;;21.10;99.90;;;;;;4136653;28;20302;-77
2022/08/17 06:12:20;;;;;;;6.93;4.30;;;21.10;99.90;;;;;;4140067;28;20205;-76
2022/08/17 06:14:43;;;;;;;5.90;4.67;;;21.10;99.90;;;;;;4158518;28;20203;-76
2022/08/17 06:16:53;;;;;;;5.63;4.77;;;21.10;99.90;;;;;;4159664;28;20243;-77
2022/08/17 06:19:01;;;;;;;7.27;4.60;;;21.10;99.90;;;;;;4151805;28;20652;-77
2022/08/17 06:21:05;;;;;;;8.73;4.77;;;21.10;99.90;;;;;;4153889;28;20244;-76
2022/08/17 06:23:13;;;;;;;6.67;5.00;;;21.10;99.90;;;;;;4159543;28;20638;-76
2022/08/17 06:25:18;;;;;;;7.67;5.23;;;21.10;99.90;;;;;;4158541;28;20232;-76
2022/08/17 06:27:29;;;;;;;11.23;5.43;;;21.10;99.90;;;;;;4159836;28;20288;-76
2022/08/17 06:29:38;;;;;;;7.77;4.97;;;21.20;99.90;;;;;;4138592;28;20597;-76
2022/08/17 06:31:41;;;;;;;7.97;4.97;;;21.20;99.90;;;;;;4158625;28;20202;-76
2022/08/17 06:33:45;;;;;;;6.37;4.50;;;21.20;99.90;;;;;;4136354;28;20222;-77
2022/08/17 06:36:01;;;;;;;7.90;5.70;;;21.20;99.90;;;;;;4153655;28;20221;-76
2022/08/17 06:38:10;;;;;;;8.33;5.10;;;21.30;99.90;;;;;;4153558;28;20969;-76
2022/08/17 06:40:28;;;;;;;10.83;5.63;;;21.30;99.90;;;;;;4154226;28;20219;-76
2022/08/17 06:42:39;;;;;;;7.37;5.10;;;21.30;99.90;;;;;;4157068;28;20229;-76
2022/08/17 06:44:46;;;;;;;8.20;5.63;;;21.30;99.90;;;;;;4158064;28;20636;-76
2022/08/17 06:46:51;;;;;;;11.63;5.60;;;21.30;99.90;;;;;;4155328;28;20631;-76
2022/08/17 06:49:06;;;;;;;8.03;5.47;;;21.40;99.90;;;;;;4140213;28;20629;-76
2022/08/17 06:51:18;;;;;;;6.93;5.20;;;21.40;99.90;;;;;;4156449;28;20207;-76
2022/08/17 06:53:23;;;;;;;6.77;4.73;;;21.50;99.90;;;;;;4153739;28;20230;-76
2022/08/17 06:55:29;;;;;;;6.00;4.87;;;21.50;99.90;;;;;;4161344;28;20195;-76
2022/08/17 06:57:33;;;;;;;6.10;4.90;;;21.60;99.90;;;;;;4137882;28;20242;-76
2022/08/17 06:59:43;;;;;;;6.83;5.43;;;21.60;99.90;;;;;;4142934;28;20685;-77
2022/08/17 07:01:48;;;;;;;7.40;5.43;;;21.60;99.90;;;;;;4156942;28;20290;-77
2022/08/17 07:03:57;;;;;;;6.60;5.00;;;21.70;99.90;;;;;;4153299;28;20595;-77
2022/08/17 07:06:03;;;;;;;5.63;4.97;;;21.70;99.90;;;;;;4155775;28;20730;-76
2022/08/17 07:08:13;;;;;;;6.53;5.07;;;21.80;99.90;;;;;;4156569;28;20207;-77
2022/08/17 07:10:16;;;;;;;6.77;4.80;;;21.80;99.90;;;;;;4156330;28;20203;-77
2022/08/17 07:12:22;;;;;;;5.37;4.63;;;21.80;99.90;;;;;;4149966;28;20227;-77
2022/08/17 07:14:35;;;;;;;5.67;4.30;;;21.90;99.90;;;;;;4156203;28;20280;-76
2022/08/17 07:16:42;;;;;;;7.50;5.00;;;21.90;99.90;;;;;;4158513;28;20232;-77
2022/08/17 07:18:45;;;;;;;5.70;4.70;;;21.90;99.90;;;;;;4153918;28;20276;-77
2022/08/17 07:20:51;;;;;;;6.83;4.80;;;22.00;99.90;;;;;;4136299;28;20232;-77
2022/08/17 07:23:00;;;;;;;5.30;4.50;;;22.00;99.90;;;;;;4158240;28;20212;-76
2022/08/17 07:25:07;;;;;;;5.80;4.73;;;22.10;99.90;;;;;;4143572;28;20254;-77
2022/08/17 07:27:17;;;;;;;5.17;4.67;;;22.20;99.90;;;;;;4161685;28;20285;-77
2022/08/17 07:29:19;;;;;;;5.57;4.47;;;22.20;99.90;;;;;;4158246;28;21157;-77
2022/08/17 07:31:21;;;;;;;5.07;4.23;;;22.20;99.90;;;;;;4157506;28;20231;-77
2022/08/17 07:33:26;;;;;;;6.57;5.10;;;22.30;99.90;;;;;;4155581;28;20291;-77
2022/08/17 07:35:38;;;;;;;5.97;4.70;;;22.30;99.90;;;;;;4158280;28;20288;-77
2022/08/17 07:37:42;;;;;;;6.27;4.80;;;22.30;99.90;;;;;;4142186;28;20762;-77
2022/08/17 07:39:45;;;;;;;5.27;4.70;;;22.40;99.90;;;;;;4154821;28;20212;-76
2022/08/17 07:41:48;;;;;;;4.73;4.10;;;22.40;99.90;;;;;;4156631;28;20227;-77
2022/08/17 07:43:51;;;;;;;5.63;4.33;;;22.50;99.90;;;;;;4139204;28;20293;-76
2022/08/17 07:48:37;;;;;;;5.07;4.23;;;22.50;99.90;;;;;;4154021;28;20284;-76
2022/08/17 07:50:38;;;;;;;5.27;4.37;;;22.60;99.90;;;;;;4156370;28;20198;-76
2022/08/17 07:52:40;;;;;;;4.77;4.10;;;22.60;99.90;;;;;;4140817;28;20287;-77
2022/08/17 07:54:42;;;;;;;4.80;4.27;;;22.60;99.90;;;;;;4154555;28;20209;-76
2022/08/17 07:56:47;;;;;;;5.50;4.37;;;22.70;99.90;;;;;;4155033;28;20223;-76
2022/08/17 07:59:07;;;;;;;5.27;4.33;;;22.70;99.90;;;;;;4161935;28;20727;-76
2022/08/17 08:01:11;;;;;;;6.87;4.20;;;22.80;99.90;;;;;;4155909;28;20839;-76
2022/08/17 08:03:25;;;;;;;5.77;4.30;;;22.80;99.90;;;;;;4161740;28;20296;-76
2022/08/17 08:05:31;;;;;;;5.27;4.27;;;22.90;99.90;;;;;;4158718;28;20208;-76
2022/08/17 08:07:41;;;;;;;5.13;4.30;;;23.00;99.90;;;;;;4158131;28;20231;-77
2022/08/17 08:09:45;;;;;;;6.40;4.20;;;23.00;99.90;;;;;;4159333;28;20661;-77
2022/08/17 08:11:47;;;;;;;5.03;4.23;;;23.10;99.90;;;;;;4153077;28;20848;-77
2022/08/17 08:13:50;;;;;;;4.40;3.93;;;23.10;99.90;;;;;;4138081;28;20214;-76
2022/08/17 08:15:54;;;;;;;5.03;4.13;;;23.20;99.70;;;;;;4158449;28;20619;-77
2022/08/17 08:17:58;;;;;;;4.60;3.90;;;23.20;98.70;;;;;;4157653;28;20206;-77
2022/08/17 08:20:01;;;;;;;4.97;3.83;;;23.30;99.60;;;;;;4140269;28;20217;-74
2022/08/17 08:22:09;;;;;;;4.70;4.07;;;23.30;99.60;;;;;;4158837;28;20272;-75
2022/08/17 08:24:39;;;;;;;4.30;3.70;;;23.40;99.50;;;;;;4157488;28;20697;-75
2022/08/17 08:26:47;;;;;;;3.97;3.53;;;23.40;98.80;;;;;;4157789;28;20309;-75
2022/08/17 08:29:00;;;;;;;5.10;3.70;;;23.50;98.50;;;;;;4162140;28;20202;-75
2022/08/17 08:31:09;;;;;;;3.40;3.10;;;23.60;98.00;;;;;;4158158;28;20218;-75
2022/08/17 08:33:21;;;;;;;3.97;3.40;;;23.60;97.90;;;;;;4156473;28;20211;-75
2022/08/17 08:35:31;;;;;;;4.03;3.63;;;23.70;97.50;;;;;;4157842;28;20231;-75
2022/08/17 08:37:43;;;;;;;3.93;3.57;;;23.70;97.40;;;;;;4154672;28;20689;-79
2022/08/17 08:39:58;;;;;;;4.27;3.37;;;23.80;97.10;;;;;;4149651;28;20587;-77
2022/08/17 08:42:06;;;;;;;3.30;3.00;;;23.80;96.50;;;;;;4159363;28;20299;-77
2022/08/17 08:44:23;;;;;;;3.80;3.40;;;24.00;96.20;;;;;;4158825;28;20648;-78
2022/08/17 08:46:30;;;;;;;4.30;3.90;;;24.00;99.90;;;;;;4142904;28;20690;-80
2022/08/17 08:48:54;;;;;;;4.50;4.00;;;24.10;99.90;;;;;;4160273;28;20676;-80
2022/08/17 08:51:04;;;;;;;4.73;4.20;;;24.20;99.90;;;;;;4162236;28;20680;-79
2022/08/17 08:53:33;;;;;;;5.80;4.77;;;24.30;99.90;;;;;;4160671;28;20230;-78
2022/08/17 08:55:49;;;;;;;5.23;4.10;;;24.30;99.90;;;;;;4164980;28;20317;-80
2022/08/17 08:57:57;;;;;;;6.13;4.07;;;24.40;99.90;;;;;;4148152;28;20235;-78
2022/08/17 09:00:07;;;;;;;5.37;3.93;;;24.50;99.90;;;;;;4157648;28;20230;-78
2022/08/17 09:02:22;;;;;;;4.20;3.80;;;24.50;99.90;;;;;;4156416;28;20697;-78
2022/08/17 09:04:37;;;;;;;3.93;3.53;;;24.60;99.90;;;;;;4158964;28;20296;-79
2022/08/17 09:06:49;;;;;;;4.77;3.80;;;24.60;99.90;;;;;;4160058;28;20334;-78
2022/08/17 09:09:03;;;;;;;4.87;3.97;;;24.70;99.90;;;;;;4158824;28;20215;-79
2022/08/17 09:11:09;;;;;;;6.07;4.30;;;24.80;94.00;;;;;;4158579;28;20210;-79
2022/08/17 09:13:20;;;;;;;4.77;3.60;;;24.80;96.70;;;;;;4141210;28;20208;-80
2022/08/17 09:15:28;;;;;;;7.37;3.90;;;24.90;92.90;;;;;;4159354;28;20563;-77
2022/08/17 09:17:37;;;;;;;5.80;3.80;;;25.00;96.00;;;;;;4156092;28;20218;-79
2022/08/17 09:19:44;;;;;;;6.57;4.10;;;25.00;93.90;;;;;;4139003;28;20228;-78
2022/08/17 09:21:53;;;;;;;4.20;3.70;;;25.10;93.40;;;;;;4155332;28;20211;-80
2022/08/17 09:24:04;;;;;;;3.83;3.43;;;25.20;94.50;;;;;;4159785;28;20198;-79
2022/08/17 09:26:13;;;;;;;3.97;3.37;;;25.30;90.00;;;;;;4156819;28;20621;-79
2022/08/17 09:28:19;;;;;;;4.27;3.70;;;25.40;90.30;;;;;;4157832;28;20567;-80
2022/08/17 09:30:21;;;;;;;3.80;3.40;;;25.40;85.30;;;;;;4146427;28;20223;-80
2022/08/17 09:32:37;;;;;;;3.97;3.30;;;25.50;81.60;;;;;;4140756;28;20208;-81
2022/08/17 09:34:45;;;;;;;3.70;3.40;;;25.60;76.30;;;;;;4164377;28;20203;-79
2022/08/17 09:36:56;;;;;;;4.57;3.63;;;25.70;85.30;;;;;;4164652;28;20300;-80
2022/08/17 09:39:03;;;;;;;4.30;3.80;;;25.80;88.80;;;;;;4163188;28;20269;-79
2022/08/17 09:41:13;;;;;;;3.87;3.47;;;25.80;90.20;;;;;;4163060;28;20242;-79
2022/08/17 09:43:27;;;;;;;4.73;3.57;;;25.90;78.30;;;;;;4159267;28;20238;-80
2022/08/17 09:45:35;;;;;;;3.33;3.03;;;26.00;83.00;;;;;;4151061;28;20211;-79
2022/08/17 09:47:45;;;;;;;4.47;3.50;;;26.10;75.00;;;;;;4156808;28;20233;-80
2022/08/17 09:49:50;;;;;;;3.70;3.40;;;26.10;74.00;;;;;;4163567;28;20218;-80
2022/08/17 09:51:58;;;;;;;3.53;3.00;;;26.30;77.50;;;;;;4151983;28;20197;-79
2022/08/17 09:54:02;;;;;;;3.57;2.83;;;26.40;77.00;;;;;;4160726;28;20240;-77
2022/08/17 09:56:35;;;;;;;5.10;3.80;;;26.40;73.80;;;;;;4165516;28;20217;-80
2022/08/17 09:58:54;;;;;;;4.70;4.10;;;26.60;66.90;;;;;;4164657;28;20215;-80
2022/08/17 10:01:09;;;;;;;6.63;4.23;;;26.70;63.10;;;;;;4149023;28;20319;-82
2022/08/17 10:03:33;;;;;;;4.50;3.67;;;26.80;62.00;;;;;;4165507;28;20209;-80
2022/08/17 10:05:45;;;;;;;4.40;3.60;;;26.90;62.30;;;;;;4162637;28;20286;-79
2022/08/17 10:07:57;;;;;;;4.43;3.90;;;27.00;60.80;;;;;;4157413;28;20250;-79
2022/08/17 10:10:04;;;;;;;5.33;3.80;;;27.10;59.60;;;;;;4152861;28;20199;-82
2022/08/17 10:12:16;;;;;;;4.23;3.60;;;27.20;58.70;;;;;;4159810;28;20206;-81
2022/08/17 10:14:25;;;;;;;4.50;3.40;;;27.30;57.80;;;;;;4136947;28;20291;-81
2022/08/17 10:16:37;;;;;;;3.17;2.87;;;27.40;54.20;;;;;;4137923;28;20241;-83
2022/08/17 10:18:49;;;;;;;5.03;3.40;;;27.50;57.10;;;;;;4159854;28;20281;-81
2022/08/17 10:28:08;;;;;;;4.30;3.27;;;27.90;57.00;;;;;;4137498;28;20204;-84
2022/08/17 10:30:15;;;;;;;5.03;3.10;;;28.00;57.80;;;;;;4140764;28;20231;-83
2022/08/17 10:32:25;;;;;;;3.50;3.13;;;28.10;54.70;;;;;;4152288;28;20227;-81
2022/08/17 10:34:53;;;;;;;3.67;3.20;;;28.20;56.20;;;;;;4160449;28;20258;-84
2022/08/17 10:37:01;;;;;;;4.43;3.17;;;28.30;52.40;;;;;;4156892;28;20226;-80
2022/08/17 10:39:14;;;;;;;3.03;2.73;;;28.30;53.30;;;;;;4141932;28;20207;-81
2022/08/17 10:41:25;;;;;;;4.03;3.03;;;28.40;52.50;;;;;;4157703;28;20214;-79
2022/08/17 10:43:37;;;;;;;3.80;3.40;;;28.50;51.70;;;;;;4157451;28;20230;-81
2022/08/17 10:45:51;;;;;;;4.20;2.73;;;28.60;52.30;;;;;;4161328;28;20211;-82
2022/08/17 10:47:58;;;;;;;3.00;2.70;;;28.70;50.60;;;;;;4154904;28;20313;-81
2022/08/17 10:50:36;;;;;;;3.43;2.70;;;28.90;49.60;;;;;;4154591;28;20218;-80
2022/08/17 10:52:48;;;;;;;3.33;2.93;;;29.00;49.10;;;;;;4150233;28;20211;-80
2022/08/17 10:55:11;;;;;;;3.35;3.05;;;29.10;48.90;;;;;;4152523;28;20227;-80
2022/08/17 10:57:36;;;;;;;4.05;2.90;;;29.20;48.80;;;;;;4154242;28;20228;-80
2022/08/17 10:59:50;;;;;;;3.15;2.78;;;29.40;47.90;;;;;;4157040;28;20246;-80
2022/08/17 11:02:12;;;;;;;4.03;2.80;;;29.50;47.50;;;;;;4154333;28;20237;-78
2022/08/17 11:04:45;;;;;;;3.15;2.65;;;29.60;45.10;;;;;;4155612;28;20203;-78
2022/08/17 11:07:01;;;;;;;3.25;2.95;;;29.80;45.20;;;;;;4153558;28;20259;-80
2022/08/17 11:09:25;;;;;;;3.45;3.15;;;29.90;44.80;;;;;;4151351;28;20258;-78
2022/08/17 11:11:50;;;;;;;4.00;3.00;;;30.00;43.10;;;;;;4156453;28;20207;-80
2022/08/17 11:14:05;;;;;;;3.17;2.83;;;30.20;43.00;;;;;;4136616;28;20299;-78
2022/08/17 11:16:27;;;;;;;4.38;2.83;;;30.50;41.70;;;;;;4153265;28;20214;-79
2022/08/17 11:18:52;;;;;;;3.30;2.88;;;30.60;41.50;;;;;;4155088;28;20295;-79
2022/08/17 11:21:13;;;;;;;3.33;2.83;;;30.70;40.80;;;;;;4159360;28;20815;-78
2022/08/17 11:23:38;;;;;;;6.88;3.53;;;30.90;41.20;;;;;;4157564;28;20210;-78